createdAt,value
2023-03-29T00:01:07.267Z,101385.65
2023-03-29T00:03:36.444Z,101385.42
2023-03-29T00:06:06.258Z,101387.25
2023-03-29T00:08:35.664Z,101387.62
2023-03-29T00:11:05.231Z,101378.98
2023-03-29T00:13:34.451Z,101378.94
2023-03-29T00:16:03.817Z,101373.79
2023-03-29T00:18:32.872Z,101374.05
2023-03-29T00:21:02.500Z,101371.14
2023-03-29T00:23:31.981Z,101372.08
2023-03-29T00:26:01.268Z,101368.00
2023-03-29T00:28:30.877Z,101367.33
2023-03-29T00:31:05.632Z,101365.64
2023-03-29T00:33:35.155Z,101363.10
2023-03-29T00:36:04.623Z,101365.56
2023-03-29T00:38:33.787Z,101363.38
2023-03-29T00:41:04.255Z,101361.68
2023-03-29T00:43:47.037Z,101361.95
2023-03-29T00:46:16.111Z,101355.52
2023-03-29T00:48:45.223Z,101352.42
2023-03-29T00:51:15.263Z,101354.10
2023-03-29T00:53:46.278Z,101352.48
2023-03-29T00:56:19.056Z,101349.91
2023-03-29T00:58:52.006Z,101345.90
2023-03-29T01:01:23.836Z,101343.84
2023-03-29T01:03:55.404Z,101338.64
2023-03-29T01:06:26.930Z,101338.10
2023-03-29T01:08:57.878Z,101334.80
2023-03-29T01:11:28.606Z,101329.41
2023-03-29T01:13:59.072Z,101327.70
2023-03-29T01:16:29.212Z,101326.06
2023-03-29T01:18:58.805Z,101324.71
2023-03-29T01:21:29.820Z,101324.39
2023-03-29T01:24:07.811Z,101317.15
2023-03-29T01:26:42.495Z,101314.81
2023-03-29T01:29:14.099Z,101315.27
2023-03-29T01:31:45.234Z,101314.17
2023-03-29T01:34:16.960Z,101321.45
2023-03-29T01:36:48.612Z,101313.95
2023-03-29T01:39:17.689Z,101312.41
2023-03-29T01:41:52.555Z,101309.73
2023-03-29T01:44:27.664Z,101308.16
2023-03-29T01:47:00.795Z,101303.14
2023-03-29T01:49:32.150Z,101297.86
2023-03-29T01:52:04.476Z,101297.55
2023-03-29T01:54:35.592Z,101296.88
2023-03-29T01:57:05.542Z,101287.33
2023-03-29T01:59:35.902Z,101286.95
2023-03-29T02:02:08.063Z,101281.77
2023-03-29T02:04:39.992Z,101279.55
2023-03-29T02:07:10.283Z,101278.38
2023-03-29T02:09:40.249Z,101275.83
2023-03-29T02:12:10.201Z,101270.80
2023-03-29T02:14:39.340Z,101272.48
2023-03-29T02:17:16.681Z,101268.77
2023-03-29T02:19:46.922Z,101262.23
2023-03-29T02:22:19.299Z,101263.96
2023-03-29T02:24:49.370Z,101262.05
2023-03-29T02:27:18.460Z,101261.36
2023-03-29T02:29:47.500Z,101259.45
2023-03-29T02:32:20.362Z,101261.27
2023-03-29T02:34:53.754Z,101253.84
2023-03-29T02:37:25.420Z,101251.81
2023-03-29T02:39:54.564Z,101249.06
2023-03-29T02:42:24.708Z,101252.83
2023-03-29T02:44:56.058Z,101256.57
2023-03-29T02:47:28.716Z,101252.17
2023-03-29T02:49:57.941Z,101247.72
2023-03-29T02:52:29.131Z,101245.86
2023-03-29T02:54:58.499Z,101239.71
2023-03-29T02:57:27.591Z,101233.34
2023-03-29T03:01:22.109Z,101229.19
2023-03-29T03:03:51.316Z,101231.61
2023-03-29T03:06:20.397Z,101227.02
2023-03-29T03:08:49.460Z,101224.77
2023-03-29T03:11:18.614Z,101223.30
2023-03-29T03:13:47.682Z,101224.28
2023-03-29T03:16:16.812Z,101220.89
2023-03-29T03:18:45.976Z,101218.69
2023-03-29T03:21:15.060Z,101218.89
2023-03-29T03:23:44.156Z,101216.80
2023-03-29T03:26:13.466Z,101214.42
2023-03-29T03:28:42.520Z,101209.77
2023-03-29T03:31:11.838Z,101206.48
2023-03-29T03:33:40.906Z,101208.70
2023-03-29T03:36:10.701Z,101203.14
2023-03-29T03:38:39.814Z,101199.39
2023-03-29T03:41:09.126Z,101199.64
2023-03-29T03:43:38.444Z,101200.92
2023-03-29T03:46:07.576Z,101199.75
2023-03-29T03:48:36.657Z,101200.75
2023-03-29T03:51:06.099Z,101200.59
2023-03-29T03:53:35.252Z,101196.69
2023-03-29T03:56:04.569Z,101189.55
2023-03-29T03:58:33.741Z,101182.83
2023-03-29T04:01:03.585Z,101178.69
2023-03-29T04:03:32.948Z,101179.23
2023-03-29T04:06:02.600Z,101180.77
2023-03-29T04:08:31.697Z,101184.34
2023-03-29T04:11:01.434Z,101183.02
2023-03-29T04:13:31.075Z,101188.83
2023-03-29T04:16:01.500Z,101190.78
2023-03-29T04:18:31.243Z,101184.42
2023-03-29T04:21:00.662Z,101187.54
2023-03-29T04:23:30.026Z,101185.74
2023-03-29T04:25:59.103Z,101193.92
2023-03-29T04:28:28.218Z,101187.70
2023-03-29T04:30:57.301Z,101184.64
2023-03-29T04:33:26.409Z,101179.98
2023-03-29T04:35:55.572Z,101182.22
2023-03-29T04:38:24.624Z,101181.30
2023-03-29T04:40:53.681Z,101183.31
2023-03-29T04:43:22.911Z,101179.94
2023-03-29T04:45:52.143Z,101180.70
2023-03-29T04:48:21.207Z,101180.27
2023-03-29T04:50:50.341Z,101177.23
2023-03-29T04:53:19.533Z,101177.36
2023-03-29T04:55:48.867Z,101170.36
2023-03-29T04:58:19.479Z,101166.09
2023-03-29T05:00:49.769Z,101168.11
2023-03-29T05:03:18.833Z,101163.67
2023-03-29T05:05:48.022Z,101166.26
2023-03-29T05:08:17.158Z,101164.89
2023-03-29T05:10:46.327Z,101165.23
2023-03-29T05:13:15.433Z,101163.33
2023-03-29T05:15:44.479Z,101158.04
2023-03-29T05:18:13.553Z,101157.39
2023-03-29T05:20:45.764Z,101150.96
2023-03-29T05:23:14.835Z,101151.35
2023-03-29T05:25:44.006Z,101151.01
2023-03-29T05:28:13.024Z,101152.16
2023-03-29T05:30:42.285Z,101146.70
2023-03-29T05:33:11.525Z,101141.64
2023-03-29T05:35:40.625Z,101143.29
2023-03-29T05:38:09.841Z,101141.61
2023-03-29T05:40:38.951Z,101139.33
2023-03-29T05:43:08.021Z,101134.98
2023-03-29T05:45:37.140Z,101129.86
2023-03-29T05:48:06.477Z,101125.88
2023-03-29T05:50:35.624Z,101121.24
2023-03-29T05:53:04.779Z,101123.79
2023-03-29T05:55:34.226Z,101128.58
2023-03-29T05:58:03.432Z,101126.41
2023-03-29T06:00:32.530Z,101126.19
2023-03-29T06:03:13.316Z,101127.48
2023-03-29T06:05:49.460Z,101126.66
2023-03-29T06:08:18.812Z,101127.05
2023-03-29T06:10:47.883Z,101129.56
2023-03-29T06:13:17.020Z,101124.61
2023-03-29T06:15:46.057Z,101126.74
2023-03-29T06:18:15.118Z,101127.37
2023-03-29T06:20:47.419Z,101137.91
2023-03-29T06:23:16.827Z,101138.40
2023-03-29T06:25:46.073Z,101136.94
2023-03-29T06:28:15.122Z,101140.49
2023-03-29T06:30:44.822Z,101139.22
2023-03-29T06:33:14.080Z,101139.47
2023-03-29T06:35:43.516Z,101138.09
2023-03-29T06:38:12.713Z,101136.36
2023-03-29T06:40:42.084Z,101133.54
2023-03-29T06:43:11.208Z,101133.40
2023-03-29T06:45:40.504Z,101132.73
2023-03-29T06:48:09.542Z,101132.92
2023-03-29T06:50:38.641Z,101133.32
2023-03-29T06:53:07.828Z,101134.52
2023-03-29T06:55:36.910Z,101128.29
2023-03-29T06:58:05.919Z,101127.48
2023-03-29T07:00:35.746Z,101128.13
2023-03-29T07:03:06.862Z,101127.77
2023-03-29T07:05:36.154Z,101129.14
2023-03-29T07:08:05.449Z,101128.20
2023-03-29T07:10:36.611Z,101132.62
2023-03-29T07:13:06.599Z,101134.61
2023-03-29T07:15:35.833Z,101126.48
2023-03-29T07:18:05.093Z,101129.73
2023-03-29T07:20:34.452Z,101123.08
2023-03-29T07:23:03.646Z,101121.45
2023-03-29T07:25:32.704Z,101122.55
2023-03-29T07:28:01.911Z,101124.76
2023-03-29T07:30:32.530Z,101119.71
2023-03-29T07:33:01.952Z,101122.26
2023-03-29T07:35:34.419Z,101123.09
2023-03-29T07:38:03.824Z,101116.57
2023-03-29T07:40:32.937Z,101118.00
2023-03-29T07:43:01.976Z,101114.23
2023-03-29T07:45:31.176Z,101118.58
2023-03-29T07:48:00.659Z,101113.52
2023-03-29T07:50:29.765Z,101110.06
2023-03-29T07:52:58.850Z,101107.99
2023-03-29T07:55:28.046Z,101103.61
2023-03-29T07:57:57.088Z,101105.21
2023-03-29T08:00:27.271Z,101101.45
2023-03-29T08:02:56.496Z,101097.46
2023-03-29T08:05:40.158Z,101097.08
2023-03-29T08:08:10.799Z,101091.62
2023-03-29T08:10:40.023Z,101094.09
2023-03-29T08:13:09.489Z,101092.36
2023-03-29T08:15:39.397Z,101090.66
2023-03-29T08:18:08.694Z,101086.92
2023-03-29T08:20:37.918Z,101088.73
2023-03-29T08:23:07.212Z,101085.83
2023-03-29T08:25:36.248Z,101081.59
2023-03-29T08:28:05.382Z,101084.27
2023-03-29T08:30:34.476Z,101084.88
2023-03-29T08:33:04.215Z,101079.36
2023-03-29T08:35:33.385Z,101080.91
2023-03-29T08:38:02.497Z,101074.58
2023-03-29T08:40:31.564Z,101068.99
2023-03-29T08:43:07.088Z,101064.40
2023-03-29T08:45:38.921Z,101064.02
2023-03-29T08:48:15.770Z,101062.51
2023-03-29T08:50:46.881Z,101062.16
2023-03-29T08:53:17.731Z,101062.77
2023-03-29T08:55:48.360Z,101062.58
2023-03-29T08:58:18.552Z,101062.61
2023-03-29T09:00:50.532Z,101060.35
2023-03-29T09:03:22.082Z,101062.35
2023-03-29T09:05:53.545Z,101059.91
2023-03-29T09:08:23.165Z,101061.53
2023-03-29T09:11:02.465Z,101054.43
2023-03-29T09:13:39.163Z,101053.79
2023-03-29T09:16:13.293Z,101048.73
2023-03-29T09:18:49.203Z,101043.52
2023-03-29T09:21:21.788Z,101037.98
2023-03-29T09:24:05.621Z,101035.35
2023-03-29T09:26:39.631Z,101033.64
2023-03-29T09:29:19.581Z,101031.34
2023-03-29T09:31:49.667Z,101033.91
2023-03-29T09:34:21.897Z,101034.36
2023-03-29T09:36:52.723Z,101030.19
2023-03-29T09:39:22.478Z,101026.46
2023-03-29T09:41:53.628Z,101019.89
2023-03-29T09:44:30.984Z,101019.09
2023-03-29T09:47:03.001Z,101013.05
2023-03-29T09:49:34.584Z,101006.88
2023-03-29T09:52:05.932Z,101006.73
2023-03-29T09:54:35.413Z,101006.56
2023-03-29T09:57:05.354Z,101003.34
2023-03-29T09:59:35.810Z,100999.06
2023-03-29T10:02:08.129Z,100995.64
2023-03-29T10:04:37.331Z,100994.53
2023-03-29T10:07:07.501Z,100990.57
2023-03-29T10:09:36.674Z,100985.37
2023-03-29T10:12:06.889Z,100980.16
2023-03-29T10:14:37.324Z,100979.23
2023-03-29T10:17:12.881Z,100978.60
2023-03-29T10:19:47.637Z,100980.71
2023-03-29T10:22:19.135Z,100975.45
2023-03-29T10:24:52.201Z,100970.31
2023-03-29T10:27:22.506Z,100972.34
2023-03-29T10:29:52.026Z,100977.02
2023-03-29T10:32:26.539Z,100968.37
2023-03-29T10:34:59.694Z,100971.34
2023-03-29T10:37:29.009Z,100973.42
2023-03-29T10:39:58.121Z,100972.17
2023-03-29T10:42:28.141Z,100958.13
2023-03-29T10:44:58.081Z,100957.45
2023-03-29T10:47:31.250Z,100959.67
2023-03-29T10:50:00.335Z,100949.22
2023-03-29T10:52:29.566Z,100948.39
2023-03-29T10:54:58.781Z,100951.19
2023-03-29T10:57:32.543Z,100950.92
2023-03-29T11:00:06.196Z,100946.93
2023-03-29T11:02:46.056Z,100940.25
2023-03-29T11:05:19.309Z,100933.84
2023-03-29T11:07:53.164Z,100933.36
2023-03-29T11:10:31.520Z,100928.85
2023-03-29T11:13:05.145Z,100918.67
2023-03-29T11:15:41.098Z,100912.80
2023-03-29T11:18:36.019Z,100910.86
2023-03-29T11:21:10.771Z,100899.49
2023-03-29T11:23:45.322Z,100899.06
2023-03-29T11:26:17.185Z,100898.63
2023-03-29T11:28:50.097Z,100898.86
2023-03-29T11:31:24.671Z,100891.58
2023-03-29T11:33:58.801Z,100892.58
2023-03-29T11:36:32.606Z,100893.59
2023-03-29T11:39:04.843Z,100890.39
2023-03-29T11:41:35.241Z,100886.36
2023-03-29T11:44:06.194Z,100885.35
2023-03-29T11:46:46.254Z,100884.81
2023-03-29T11:49:19.120Z,100881.19
2023-03-29T11:51:50.443Z,100876.57
2023-03-29T11:54:22.410Z,100866.67
2023-03-29T11:56:55.411Z,100868.67
2023-03-29T11:59:28.619Z,100870.54
2023-03-29T12:02:02.120Z,100861.39
2023-03-29T12:04:37.321Z,100852.81
2023-03-29T12:07:10.988Z,100854.45
2023-03-29T12:09:43.404Z,100852.92
2023-03-29T12:12:15.548Z,100851.81
2023-03-29T12:15:01.095Z,100852.45
2023-03-29T12:17:34.192Z,100846.30
2023-03-29T12:20:06.859Z,100843.36
2023-03-29T12:22:37.288Z,100840.37
2023-03-29T12:25:11.866Z,100826.07
2023-03-29T12:27:45.118Z,100826.06
2023-03-29T12:30:24.976Z,100819.23
2023-03-29T12:33:10.184Z,100821.30
2023-03-29T12:35:47.779Z,100815.83
2023-03-29T12:38:20.140Z,100817.05
2023-03-29T12:40:55.501Z,100813.82
2023-03-29T12:43:27.149Z,100814.27
2023-03-29T12:46:01.139Z,100805.90
2023-03-29T12:48:30.514Z,100801.81
2023-03-29T12:51:00.799Z,100796.20
2023-03-29T12:53:34.077Z,100795.48
2023-03-29T12:56:36.445Z,100791.28
2023-03-29T12:59:17.484Z,100787.31
2023-03-29T13:01:57.183Z,100784.52
2023-03-29T13:04:36.491Z,100784.35
2023-03-29T13:07:06.112Z,100780.71
2023-03-29T13:09:47.709Z,100776.62
2023-03-29T13:12:22.782Z,100778.70
2023-03-29T13:14:53.116Z,100777.86
2023-03-29T13:17:26.100Z,100782.02
2023-03-29T13:20:28.345Z,100780.81
2023-03-29T13:23:04.919Z,100783.55
2023-03-29T13:25:40.080Z,100781.85
2023-03-29T13:28:14.813Z,100780.05
2023-03-29T13:30:51.526Z,100776.21
2023-03-29T13:33:29.065Z,100771.67
2023-03-29T13:36:03.302Z,100768.64
2023-03-29T13:38:32.577Z,100763.58
2023-03-29T13:41:05.533Z,100764.56
2023-03-29T13:43:36.529Z,100757.60
2023-03-29T13:46:19.179Z,100757.94
2023-03-29T13:48:51.914Z,100758.28
2023-03-29T13:51:26.379Z,100757.84
2023-03-29T13:53:58.360Z,100757.47
2023-03-29T13:56:31.107Z,100756.44
2023-03-29T13:59:02.377Z,100758.17
2023-03-29T14:01:36.858Z,100756.57
2023-03-29T14:04:10.007Z,100753.06
2023-03-29T14:06:41.374Z,100750.94
2023-03-29T14:09:12.783Z,100749.95
2023-03-29T14:11:44.234Z,100743.89
2023-03-29T14:14:13.503Z,100748.50
2023-03-29T14:16:42.747Z,100745.06
2023-03-29T14:19:15.188Z,100751.20
2023-03-29T14:22:15.697Z,100741.91
2023-03-29T14:24:37.773Z,100737.70
2023-03-29T14:27:07.978Z,100738.33
2023-03-29T14:29:37.186Z,100734.06
2023-03-29T14:32:10.339Z,100730.30
2023-03-29T14:34:39.913Z,100726.48
2023-03-29T14:37:11.745Z,100721.73
2023-03-29T14:39:41.090Z,100717.70
2023-03-29T14:42:15.207Z,100712.37
2023-03-29T14:44:44.928Z,100711.66
2023-03-29T14:47:18.820Z,100708.73
2023-03-29T14:49:48.131Z,100699.00
2023-03-29T14:52:18.810Z,100697.94
2023-03-29T14:54:50.296Z,100687.38
2023-03-29T14:57:23.429Z,100688.80
2023-03-29T14:59:54.032Z,100694.67
2023-03-29T15:02:27.529Z,100698.35
2023-03-29T15:04:58.205Z,100695.65
2023-03-29T15:07:27.712Z,100703.09
2023-03-29T15:09:57.481Z,100704.36
2023-03-29T15:12:28.824Z,100711.38
2023-03-29T15:14:58.655Z,100709.13
2023-03-29T15:17:43.070Z,100703.16
2023-03-29T15:20:18.904Z,100701.73
2023-03-29T15:23:01.294Z,100694.61
2023-03-29T15:25:33.922Z,100686.94
2023-03-29T15:28:03.069Z,100675.31
2023-03-29T15:30:36.491Z,100675.05
2023-03-29T15:33:32.449Z,100675.98
2023-03-29T15:36:02.471Z,100686.83
2023-03-29T15:38:42.647Z,100696.38
2023-03-29T15:41:14.735Z,100697.39
2023-03-29T15:43:44.060Z,100703.69
2023-03-29T15:46:13.260Z,100703.99
2023-03-29T15:48:42.648Z,100707.85
2023-03-29T15:51:12.012Z,100693.75
2023-03-29T15:53:42.110Z,100693.33
2023-03-29T15:56:16.143Z,100694.98
2023-03-29T15:58:45.404Z,100699.79
2023-03-29T16:01:19.520Z,100694.43
2023-03-29T16:03:49.195Z,100697.48
2023-03-29T16:06:18.329Z,100701.41
2023-03-29T16:08:47.461Z,100699.91
2023-03-29T16:11:19.239Z,100698.16
2023-03-29T16:13:48.570Z,100694.84
2023-03-29T16:16:17.729Z,100689.36
2023-03-29T16:18:46.811Z,100690.70
2023-03-29T16:21:17.538Z,100691.61
2023-03-29T16:23:46.774Z,100693.40
2023-03-29T16:26:16.454Z,100691.98
2023-03-29T16:28:45.602Z,100683.49
2023-03-29T16:31:14.805Z,100682.25
2023-03-29T16:33:43.956Z,100686.74
2023-03-29T16:36:15.322Z,100688.34
2023-03-29T16:38:44.493Z,100691.49
2023-03-29T16:41:15.134Z,100689.58
2023-03-29T16:43:44.466Z,100685.09
2023-03-29T16:46:17.372Z,100682.54
2023-03-29T16:48:46.447Z,100678.41
2023-03-29T16:51:15.596Z,100672.75
2023-03-29T16:53:44.857Z,100669.75
2023-03-29T16:56:14.215Z,100663.38
2023-03-29T16:58:43.332Z,100663.17
2023-03-29T17:01:13.545Z,100665.64
2023-03-29T17:03:43.517Z,100662.75
2023-03-29T17:06:12.747Z,100663.73
2023-03-29T17:08:41.900Z,100658.31
2023-03-29T17:11:11.205Z,100655.30
2023-03-29T17:13:40.513Z,100654.58
2023-03-29T17:16:09.956Z,100652.30
2023-03-29T17:18:39.048Z,100650.27
2023-03-29T17:21:10.110Z,100645.83
2023-03-29T17:23:42.160Z,100644.73
2023-03-29T17:26:11.380Z,100648.91
2023-03-29T17:28:40.435Z,100650.76
2023-03-29T17:31:09.757Z,100649.49
2023-03-29T17:33:39.069Z,100647.84
2023-03-29T17:36:10.576Z,100653.15
2023-03-29T17:39:02.972Z,100660.77
2023-03-29T17:41:32.233Z,100657.72
2023-03-29T17:44:01.440Z,100658.93
2023-03-29T17:46:37.933Z,100660.77
2023-03-29T17:49:07.332Z,100662.58
2023-03-29T17:51:36.769Z,100664.17
2023-03-29T17:54:06.154Z,100667.77
2023-03-29T17:56:35.510Z,100670.69
2023-03-29T17:59:04.705Z,100675.89
2023-03-29T18:01:35.346Z,100682.53
2023-03-29T18:04:05.593Z,100681.29
2023-03-29T18:06:34.916Z,100680.59
2023-03-29T18:09:04.902Z,100677.73
2023-03-29T18:11:34.174Z,100676.30
2023-03-29T18:14:23.923Z,100674.11
2023-03-29T18:16:53.222Z,100672.53
2023-03-29T18:19:22.570Z,100675.17
2023-03-29T18:21:51.689Z,100673.67
2023-03-29T18:24:20.758Z,100672.27
2023-03-29T18:26:49.809Z,100674.85
2023-03-29T18:29:19.037Z,100683.07
2023-03-29T18:31:48.446Z,100681.38
2023-03-29T18:34:17.732Z,100684.82
2023-03-29T18:36:49.192Z,100684.55
2023-03-29T18:39:41.245Z,100683.65
2023-03-29T18:42:09.662Z,100682.92
2023-03-29T18:44:41.451Z,100681.42
2023-03-29T18:47:20.836Z,100677.82
2023-03-29T18:49:50.489Z,100673.40
2023-03-29T18:52:21.759Z,100677.73
2023-03-29T18:54:51.165Z,100675.98
2023-03-29T18:57:20.561Z,100680.15
2023-03-29T18:59:49.946Z,100679.39
2023-03-29T19:02:19.262Z,100681.84
2023-03-29T19:04:48.625Z,100687.58
2023-03-29T19:07:17.771Z,100682.75
2023-03-29T19:09:47.105Z,100683.42
2023-03-29T19:12:16.384Z,100682.63
2023-03-29T19:14:45.529Z,100682.00
2023-03-29T19:17:14.591Z,100680.81
2023-03-29T19:19:43.741Z,100683.11
2023-03-29T19:22:13.274Z,100684.47
2023-03-29T19:25:03.364Z,100679.45
2023-03-29T19:27:53.095Z,100679.09
2023-03-29T19:30:22.330Z,100675.80
2023-03-29T19:32:53.740Z,100671.52
2023-03-29T19:35:22.948Z,100671.36
2023-03-29T19:37:52.082Z,100670.98
2023-03-29T19:40:21.156Z,100676.27
2023-03-29T19:42:50.301Z,100673.27
2023-03-29T19:45:39.324Z,100667.73
2023-03-29T19:48:19.426Z,100668.56
2023-03-29T19:50:50.800Z,100663.47
2023-03-29T19:53:19.832Z,100659.20
2023-03-29T19:55:48.878Z,100656.27
2023-03-29T19:58:18.026Z,100653.80
2023-03-29T20:00:47.121Z,100654.86
2023-03-29T20:03:16.403Z,100653.70
2023-03-29T20:05:46.009Z,100653.10
2023-03-29T20:08:15.247Z,100647.30
2023-03-29T20:10:44.309Z,100650.04
2023-03-29T20:13:14.561Z,100644.36
2023-03-29T20:15:46.764Z,100644.95
2023-03-29T20:18:16.151Z,100647.14
2023-03-29T20:20:45.260Z,100648.86
2023-03-29T20:23:14.352Z,100648.70
2023-03-29T20:25:43.473Z,100646.79
2023-03-29T20:28:12.672Z,100645.30
2023-03-29T20:30:41.916Z,100642.31
2023-03-29T20:33:10.990Z,100640.75
2023-03-29T20:35:40.040Z,100642.07
2023-03-29T20:38:09.106Z,100641.21
2023-03-29T20:40:38.338Z,100636.90
2023-03-29T20:43:07.696Z,100632.64
2023-03-29T20:45:46.392Z,100627.59
2023-03-29T20:48:21.792Z,100619.79
2023-03-29T20:50:51.334Z,100618.93
2023-03-29T20:53:20.918Z,100616.99
2023-03-29T20:55:50.025Z,100611.45
2023-03-29T20:58:19.200Z,100608.17
2023-03-29T21:00:48.297Z,100610.64
2023-03-29T21:03:17.645Z,100606.80
2023-03-29T21:05:53.404Z,100606.85
2023-03-29T21:08:22.502Z,100599.21
2023-03-29T21:10:51.506Z,100599.95
2023-03-29T21:13:20.970Z,100599.51
2023-03-29T21:15:50.079Z,100597.79
2023-03-29T21:18:19.272Z,100598.86
2023-03-29T21:20:48.586Z,100592.39
2023-03-29T21:23:17.644Z,100585.45
2023-03-29T21:25:46.662Z,100584.18
2023-03-29T21:28:15.722Z,100583.98
2023-03-29T21:30:44.861Z,100583.73
2023-03-29T21:33:13.982Z,100577.66
2023-03-29T21:35:43.084Z,100573.71
2023-03-29T21:38:12.157Z,100566.46
2023-03-29T21:40:41.241Z,100564.17
2023-03-29T21:43:10.292Z,100563.70
2023-03-29T21:45:39.367Z,100560.27
2023-03-29T21:48:08.567Z,100558.73
2023-03-29T21:50:37.689Z,100553.75
2023-03-29T21:53:06.724Z,100554.73
2023-03-29T21:55:35.785Z,100554.05
2023-03-29T21:58:04.870Z,100550.19
2023-03-29T22:00:34.085Z,100549.80
2023-03-29T22:03:03.312Z,100547.33
2023-03-29T22:05:32.356Z,100539.97
2023-03-29T22:08:01.459Z,100543.39
2023-03-29T22:10:30.594Z,100541.48
2023-03-29T22:13:00.203Z,100542.33
2023-03-29T22:15:29.325Z,100542.99
2023-03-29T22:17:59.740Z,100544.95
2023-03-29T22:20:29.051Z,100542.78
2023-03-29T22:22:58.103Z,100536.89
2023-03-29T22:25:27.199Z,100537.81
2023-03-29T22:27:56.252Z,100535.20
2023-03-29T22:30:25.325Z,100531.39
2023-03-29T22:32:54.348Z,100530.75
2023-03-29T22:35:23.437Z,100531.35
2023-03-29T22:37:52.580Z,100526.24
2023-03-29T22:40:21.774Z,100524.02
2023-03-29T22:42:50.907Z,100521.93
2023-03-29T22:45:19.943Z,100518.19
2023-03-29T22:47:49.045Z,100515.29
2023-03-29T22:50:18.315Z,100513.64
2023-03-29T22:52:47.365Z,100514.85
2023-03-29T22:55:16.798Z,100508.54
2023-03-29T22:57:45.892Z,100505.87
2023-03-29T23:00:15.181Z,100506.36
2023-03-29T23:02:44.214Z,100505.34
2023-03-29T23:05:13.313Z,100502.90
2023-03-29T23:07:42.359Z,100503.47
2023-03-29T23:10:12.263Z,100501.56
2023-03-29T23:12:41.388Z,100497.50
2023-03-29T23:15:12.537Z,100493.83
2023-03-29T23:17:41.760Z,100491.52
2023-03-29T23:20:11.606Z,100489.25
2023-03-29T23:22:40.684Z,100490.52
2023-03-29T23:25:11.592Z,100494.19
2023-03-29T23:27:40.798Z,100497.67
2023-03-29T23:30:10.392Z,100497.33
2023-03-29T23:32:39.471Z,100495.07
2023-03-29T23:35:10.284Z,100486.79
2023-03-29T23:37:39.593Z,100484.08
2023-03-29T23:40:11.012Z,100478.73
2023-03-29T23:42:40.145Z,100477.39
2023-03-29T23:45:11.413Z,100481.69
2023-03-29T23:47:40.519Z,100473.61
2023-03-29T23:50:11.109Z,100469.91
2023-03-29T23:52:41.060Z,100468.91
2023-03-29T23:55:13.278Z,100469.66
2023-03-29T23:57:44.821Z,100467.50
